Time;durP1;ratioP1;P1;durP2;ratioP2;P2;SDS_P1;SDS_P2;PMS_P1;PMS_P2;Temp;Humidity;BMP_temperature;BMP_pressure;BME280_temperature;BME280_humidity;BME280_pressure;Samples;Min_cycle;Max_cycle;Signal;HPM_P1;HPM_P2
2022/05/21 00:00:02;;;;;;;13.80;2.63;;;12.50;99.90;;;;;;5070100;28;20040;-50
2022/05/21 00:02:29;;;;;;;14.68;2.83;;;12.50;99.90;;;;;;5063781;28;20511;-50
2022/05/21 00:04:56;;;;;;;12.05;2.70;;;12.50;99.90;;;;;;5080221;28;20036;-53
2022/05/21 00:07:23;;;;;;;12.05;2.60;;;12.50;99.90;;;;;;5070311;28;20037;-50
2022/05/21 00:09:50;;;;;;;11.60;2.75;;;12.40;99.90;;;;;;5069340;28;20033;-46
2022/05/21 00:12:16;;;;;;;8.85;2.35;;;12.50;99.90;;;;;;5065179;28;20044;-50
2022/05/21 00:14:44;;;;;;;11.70;2.70;;;12.40;99.90;;;;;;5054305;28;20041;-49
2022/05/21 00:17:11;;;;;;;14.95;3.08;;;12.40;99.90;;;;;;5056298;28;20484;-49
2022/05/21 00:19:37;;;;;;;13.15;2.42;;;12.40;99.90;;;;;;5055448;28;20072;-52
2022/05/21 00:22:04;;;;;;;15.10;2.80;;;12.40;99.90;;;;;;5057086;28;20084;-52
2022/05/21 10:22:58;;;;;;;8.73;2.10;;;18.10;82.70;;;;;;5103700;27;20384;-53
2022/05/21 10:25:25;;;;;;;10.05;2.20;;;17.90;87.00;;;;;;5110630;28;20498;-47
2022/05/21 10:27:51;;;;;;;11.30;2.40;;;17.90;86.60;;;;;;5109922;28;20040;-48
2022/05/21 10:30:18;;;;;;;6.88;2.00;;;17.90;87.40;;;;;;5110872;28;20043;-53
2022/05/21 10:32:45;;;;;;;9.57;2.60;;;17.90;88.50;;;;;;5108779;28;20044;-54
2022/05/21 10:35:12;;;;;;;8.80;2.03;;;17.90;87.60;;;;;;5110838;28;20047;-54
2022/05/21 10:37:38;;;;;;;7.47;1.92;;;17.80;85.70;;;;;;5110753;28;20429;-56
2022/05/21 10:40:07;;;;;;;7.82;2.00;;;17.80;87.70;;;;;;5108250;28;20040;-54
2022/05/21 10:42:34;;;;;;;8.70;2.40;;;17.70;86.50;;;;;;5105047;28;20390;-52
2022/05/21 10:45:01;;;;;;;10.13;2.05;;;17.60;85.10;;;;;;5109829;28;20101;-53
2022/05/21 10:47:28;;;;;;;10.02;2.33;;;17.50;86.30;;;;;;5091479;28;20123;-50
2022/05/21 10:49:57;;;;;;;6.68;1.77;;;17.60;87.50;;;;;;5092757;28;20126;-54
2022/05/21 10:52:23;;;;;;;9.50;2.17;;;17.50;85.40;;;;;;5110096;28;20035;-51
2022/05/21 10:54:50;;;;;;;9.82;2.25;;;17.50;84.60;;;;;;5109732;28;20046;-52
2022/05/21 10:57:19;;;;;;;8.93;2.03;;;17.60;85.90;;;;;;5075050;28;20079;-53
2022/05/21 10:59:46;;;;;;;6.28;1.60;;;17.60;82.70;;;;;;5091523;28;20043;-50
2022/05/21 11:02:13;;;;;;;6.22;1.88;;;17.70;82.40;;;;;;5109128;28;20134;-53
2022/05/21 11:04:40;;;;;;;7.25;2.10;;;17.70;82.60;;;;;;5104101;28;20043;-53
2022/05/21 11:07:08;;;;;;;6.93;2.00;;;17.70;82.80;;;;;;5110362;28;20040;-49
2022/05/21 11:09:35;;;;;;;7.35;1.70;;;17.80;82.70;;;;;;5086986;28;20134;-60
2022/05/21 11:12:01;;;;;;;7.43;2.10;;;17.90;83.40;;;;;;5074758;28;20130;-52
2022/05/21 11:14:28;;;;;;;8.70;2.30;;;18.00;84.80;;;;;;5092253;28;20054;-52
2022/05/21 11:16:55;;;;;;;9.70;2.28;;;18.10;82.80;;;;;;5091348;28;20067;-55
2022/05/21 11:19:23;;;;;;;10.23;2.08;;;18.10;83.00;;;;;;5109459;28;20050;-50
2022/05/21 11:21:50;;;;;;;8.48;1.98;;;18.10;82.40;;;;;;5109460;28;20052;-53
2022/05/21 11:24:17;;;;;;;10.82;2.10;;;18.20;83.80;;;;;;5108208;28;20059;-55
2022/05/21 11:26:44;;;;;;;5.97;1.70;;;18.20;82.20;;;;;;5090893;28;20047;-49
2022/05/21 11:29:11;;;;;;;6.72;1.58;;;18.30;80.20;;;;;;5091782;28;20497;-50
2022/05/21 11:37:21;;;;;;;7.93;1.92;;;18.90;80.00;;;;;;5094650;28;20078;-52
2022/05/21 11:39:48;;;;;;;6.38;1.77;;;19.00;81.30;;;;;;5095568;28;20039;-54
2022/05/21 11:42:16;;;;;;;7.53;1.65;;;19.10;78.40;;;;;;5095350;28;20047;-55
2022/05/21 11:44:55;;;;;;;6.13;2.05;;;19.10;77.10;;;;;;5095188;28;20040;-55
2022/05/21 11:47:22;;;;;;;9.15;2.10;;;19.20;76.60;;;;;;5093889;28;20078;-54
2022/05/21 11:49:49;;;;;;;10.90;2.50;;;19.40;76.50;;;;;;5094269;28;20059;-49
2022/05/21 11:52:17;;;;;;;8.75;2.20;;;19.60;77.50;;;;;;5094987;28;20036;-51
2022/05/21 11:54:44;;;;;;;6.13;1.88;;;19.70;76.30;;;;;;5095630;28;20036;-50
2022/05/21 11:57:11;;;;;;;64.88;5.82;;;19.60;75.90;;;;;;5095668;28;20493;-53
2022/05/21 11:59:38;;;;;;;10.77;2.15;;;19.70;76.30;;;;;;5095675;28;20101;-50
2022/05/21 12:02:05;;;;;;;7.13;2.10;;;19.70;75.90;;;;;;5077556;28;20048;-51
2022/05/21 12:04:31;;;;;;;7.93;1.98;;;19.70;75.20;;;;;;5095583;28;20047;-54
2022/05/21 12:06:58;;;;;;;6.60;2.10;;;19.90;74.80;;;;;;5095473;28;20051;-54
2022/05/21 12:09:26;;;;;;;10.68;2.53;;;20.20;76.50;;;;;;5095682;28;20123;-52
2022/05/21 12:11:52;;;;;;;8.98;2.70;;;20.30;74.80;;;;;;5095430;28;20036;-50
2022/05/21 12:14:19;;;;;;;6.88;1.90;;;20.50;74.80;;;;;;5095658;28;20032;-52
2022/05/21 12:16:46;;;;;;;7.80;2.13;;;20.50;72.90;;;;;;5095412;28;20040;-47
2022/05/21 12:19:13;;;;;;;6.45;1.98;;;20.60;73.30;;;;;;5094838;28;20036;-53
2022/05/21 12:21:41;;;;;;;7.43;2.08;;;20.60;74.30;;;;;;5094848;28;20060;-54
2022/05/21 12:24:08;;;;;;;6.00;1.67;;;20.80;73.40;;;;;;5077302;28;20036;-47
2022/05/21 12:26:35;;;;;;;187.23;13.73;;;20.90;72.90;;;;;;5095154;28;20044;-55
2022/05/21 12:29:01;;;;;;;27.02;2.55;;;21.00;72.20;;;;;;5095487;28;20047;-53
2022/05/21 12:31:28;;;;;;;203.55;16.55;;;21.00;72.10;;;;;;5095242;28;20040;-53
2022/05/21 12:33:55;;;;;;;7.05;1.98;;;20.90;71.50;;;;;;5095079;28;20036;-52
2022/05/21 12:36:22;;;;;;;8.88;1.90;;;20.90;72.10;;;;;;5094990;28;20491;-51
2022/05/21 12:38:49;;;;;;;8.13;1.58;;;20.80;70.90;;;;;;5094838;28;20036;-52
2022/05/21 12:41:15;;;;;;;5.03;1.50;;;20.60;69.90;;;;;;5094890;28;20047;-49
2022/05/21 12:43:42;;;;;;;4.85;1.92;;;20.60;70.60;;;;;;5094924;28;20044;-52
2022/05/21 12:46:09;;;;;;;6.13;1.40;;;20.50;70.10;;;;;;5093993;28;20040;-54
2022/05/21 12:48:36;;;;;;;7.63;1.67;;;20.50;72.30;;;;;;5094496;28;20093;-53
2022/05/21 12:51:03;;;;;;;6.80;1.75;;;20.50;70.80;;;;;;5094103;28;20408;-52
2022/05/21 12:53:50;;;;;;;6.85;1.90;;;20.50;70.90;;;;;;5095652;28;20036;-54
2022/05/21 12:56:17;;;;;;;6.45;1.75;;;20.30;69.80;;;;;;5094488;28;20097;-54
2022/05/21 12:58:44;;;;;;;6.35;1.83;;;20.40;69.80;;;;;;5096034;28;20483;-51
2022/05/21 13:01:10;;;;;;;5.93;1.65;;;20.40;71.20;;;;;;5094298;28;20074;-52
2022/05/21 13:03:39;;;;;;;4.85;1.70;;;20.60;70.40;;;;;;5093714;28;20055;-54
2022/05/21 13:06:06;;;;;;;5.75;2.10;;;20.70;70.40;;;;;;5094090;28;20940;-51
2022/05/21 13:08:33;;;;;;;7.95;2.15;;;20.60;70.60;;;;;;5075921;28;20854;-53
2022/05/21 13:11:00;;;;;;;8.00;1.95;;;20.60;71.30;;;;;;5093556;28;20498;-49
2022/05/21 13:13:28;;;;;;;10.43;1.90;;;20.60;71.20;;;;;;5093851;28;20236;-49
2022/05/21 13:15:55;;;;;;;5.68;1.70;;;20.50;70.50;;;;;;5093625;28;20487;-50
2022/05/21 13:18:22;;;;;;;8.93;1.90;;;20.60;71.20;;;;;;5093560;28;20042;-48
2022/05/21 13:20:49;;;;;;;7.30;2.15;;;20.60;70.40;;;;;;5092828;28;20032;-51
2022/05/21 13:23:15;;;;;;;7.18;1.92;;;20.70;70.90;;;;;;5092864;28;20040;-54
2022/05/21 13:25:42;;;;;;;5.38;1.67;;;20.70;70.70;;;;;;5093798;28;20093;-57
2022/05/21 13:28:09;;;;;;;7.85;2.05;;;20.60;70.40;;;;;;5093242;28;20044;-55
2022/05/21 13:30:41;;;;;;;5.28;1.75;;;20.70;71.40;;;;;;5093458;28;20040;-50
2022/05/21 13:33:13;;;;;;;8.80;1.90;;;21.00;71.50;;;;;;5089713;28;20036;-55
2022/05/21 13:35:40;;;;;;;6.38;1.75;;;21.20;70.40;;;;;;5092681;28;20040;-54
2022/05/21 13:38:07;;;;;;;7.82;2.15;;;21.10;70.60;;;;;;5093941;28;20449;-50
2022/05/21 13:40:33;;;;;;;5.88;1.70;;;21.20;70.10;;;;;;5074546;28;20119;-54
2022/05/21 13:43:00;;;;;;;7.68;1.73;;;21.20;71.20;;;;;;5092513;28;20044;-50
2022/05/21 13:45:28;;;;;;;7.03;1.95;;;21.10;69.80;;;;;;5090494;28;20045;-56
2022/05/21 13:47:54;;;;;;;9.40;1.80;;;20.90;68.50;;;;;;5089798;28;20475;-50
2022/05/21 13:50:21;;;;;;;8.70;2.22;;;20.90;69.00;;;;;;5093209;28;20040;-60
2022/05/21 13:52:48;;;;;;;7.35;1.85;;;20.80;68.70;;;;;;5092853;28;20062;-53
2022/05/21 13:55:15;;;;;;;6.97;1.67;;;20.80;70.10;;;;;;5092890;28;20090;-49
2022/05/21 13:57:42;;;;;;;7.88;1.75;;;20.90;71.20;;;;;;5093377;28;20045;-52
2022/05/21 14:00:13;;;;;;;8.05;1.50;;;21.00;70.50;;;;;;5093462;28;20414;-52
2022/05/21 14:02:40;;;;;;;7.32;1.60;;;20.90;69.40;;;;;;5092179;28;20502;-50
2022/05/21 14:05:07;;;;;;;8.30;2.05;;;21.00;70.70;;;;;;5093137;28;20044;-49
2022/05/21 14:07:34;;;;;;;4.82;1.75;;;21.10;70.00;;;;;;5092692;28;20382;-57
2022/05/21 14:10:02;;;;;;;5.50;1.63;;;21.00;69.30;;;;;;5093532;28;20040;-56
2022/05/21 14:12:29;;;;;;;8.85;2.15;;;21.00;69.30;;;;;;5092652;28;20047;-54
2022/05/21 14:14:55;;;;;;;5.72;2.05;;;21.00;68.60;;;;;;5092269;28;20051;-53
2022/05/21 14:17:22;;;;;;;9.10;3.03;;;20.90;68.50;;;;;;5093038;28;20154;-50
2022/05/21 14:19:49;;;;;;;8.32;2.10;;;20.80;67.80;;;;;;5093264;28;20085;-51
2022/05/21 14:22:16;;;;;;;8.13;1.50;;;20.80;69.00;;;;;;5091073;28;20066;-51
2022/05/21 14:24:50;;;;;;;9.52;1.73;;;20.80;68.70;;;;;;5087698;28;20048;-52
2022/05/21 14:27:18;;;;;;;6.60;1.87;;;20.90;70.10;;;;;;5088888;28;20055;-55
2022/05/21 14:29:45;;;;;;;5.55;1.70;;;21.10;67.70;;;;;;5092337;28;20059;-51
2022/05/21 14:32:11;;;;;;;6.35;1.60;;;21.30;68.50;;;;;;5099383;28;20039;-59
2022/05/21 14:34:38;;;;;;;6.65;2.10;;;21.30;67.80;;;;;;5101096;28;20090;-55
2022/05/21 14:37:05;;;;;;;6.47;1.90;;;21.30;68.40;;;;;;5092847;28;20040;-51
2022/05/21 14:39:32;;;;;;;6.68;1.85;;;21.30;67.90;;;;;;5093209;28;20082;-53
2022/05/21 14:41:58;;;;;;;6.10;1.55;;;21.40;68.60;;;;;;5091775;28;20044;-55
2022/05/21 14:44:25;;;;;;;7.88;2.15;;;21.50;66.40;;;;;;5092421;28;20032;-53
2022/05/21 14:49:37;;;;;;;4.93;1.50;;;21.70;66.20;;;;;;5095967;28;20356;-51
2022/05/21 14:54:50;;;;;;;7.22;1.70;;;21.50;65.30;;;;;;5092749;28;20547;-55
2022/05/21 14:57:17;;;;;;;6.55;1.95;;;21.40;65.40;;;;;;5092903;28;20042;-56
2022/05/21 14:59:44;;;;;;;11.70;1.98;;;21.20;66.60;;;;;;5092904;28;20041;-48
2022/05/21 15:02:12;;;;;;;7.97;1.80;;;21.10;67.10;;;;;;5069033;28;20036;-50
2022/05/21 15:04:41;;;;;;;6.85;1.70;;;21.00;68.60;;;;;;5088450;28;20453;-50
2022/05/21 15:07:08;;;;;;;7.38;2.00;;;21.00;68.00;;;;;;5092610;28;20438;-54
2022/05/21 15:09:35;;;;;;;6.00;1.60;;;21.00;67.50;;;;;;5075510;28;20480;-55
2022/05/21 15:12:01;;;;;;;5.65;1.67;;;21.10;67.30;;;;;;5100530;28;20036;-53
2022/05/21 15:14:28;;;;;;;5.72;1.55;;;21.20;67.60;;;;;;5096973;28;20040;-52
2022/05/21 15:16:55;;;;;;;5.18;1.63;;;21.20;67.10;;;;;;5100790;28;20036;-52
2022/05/21 15:19:22;;;;;;;5.35;1.67;;;21.30;66.10;;;;;;5096814;28;20046;-49
2022/05/21 15:21:49;;;;;;;6.05;1.80;;;21.30;65.70;;;;;;5097949;28;20079;-57
2022/05/21 15:24:16;;;;;;;6.88;1.92;;;21.30;65.90;;;;;;5072438;28;20400;-59
2022/05/21 15:26:42;;;;;;;7.22;1.70;;;21.30;66.40;;;;;;5101138;28;20042;-53
2022/05/21 15:29:09;;;;;;;8.10;1.67;;;21.20;66.50;;;;;;5096628;28;20044;-55
2022/05/21 15:31:36;;;;;;;5.95;1.80;;;21.20;66.60;;;;;;5096325;28;20039;-51
2022/05/21 15:34:03;;;;;;;6.60;1.50;;;21.20;66.30;;;;;;5095913;28;20044;-49
2022/05/21 15:36:29;;;;;;;6.43;1.63;;;21.20;65.90;;;;;;5094657;28;20040;-53
2022/05/21 15:38:56;;;;;;;6.72;1.88;;;21.30;65.30;;;;;;5095008;28;20043;-53
2022/05/21 15:41:25;;;;;;;5.40;1.65;;;21.30;64.90;;;;;;5087223;28;20025;-55
2022/05/21 15:43:54;;;;;;;4.95;1.77;;;21.40;64.30;;;;;;5091814;28;20044;-52
2022/05/21 15:46:21;;;;;;;7.03;1.92;;;21.20;64.00;;;;;;5093999;28;20089;-56
2022/05/21 15:48:48;;;;;;;8.07;2.17;;;21.30;64.50;;;;;;5099087;28;20394;-55
2022/05/21 15:51:15;;;;;;;6.78;2.13;;;21.30;63.20;;;;;;5097905;28;20123;-53
2022/05/21 15:53:43;;;;;;;6.35;1.90;;;21.30;64.20;;;;;;5095879;28;20402;-52
2022/05/21 15:56:10;;;;;;;5.80;1.58;;;21.90;62.90;;;;;;5096806;28;20064;-53
2022/05/21 15:58:37;;;;;;;7.28;1.80;;;22.20;61.70;;;;;;5098214;28;20036;-52
2022/05/21 16:01:04;;;;;;;5.78;2.28;;;22.40;63.00;;;;;;5096010;28;20482;-54
2022/05/21 16:03:39;;;;;;;7.20;1.52;;;22.30;61.00;;;;;;5101732;28;20112;-49
2022/05/21 16:06:06;;;;;;;5.95;1.40;;;22.50;61.80;;;;;;5095645;28;20113;-51
2022/05/21 16:08:33;;;;;;;7.22;1.65;;;22.40;61.80;;;;;;5095846;28;20464;-50
2022/05/21 16:11:00;;;;;;;6.97;1.67;;;22.30;61.00;;;;;;5094914;28;20032;-52
2022/05/21 16:13:26;;;;;;;5.45;1.50;;;22.00;61.10;;;;;;5094958;28;20032;-54
2022/05/21 16:15:53;;;;;;;9.40;2.00;;;21.80;62.00;;;;;;5095207;28;20053;-53
2022/05/21 16:18:20;;;;;;;5.80;2.05;;;21.70;63.40;;;;;;5076905;28;20399;-54
2022/05/21 16:20:47;;;;;;;6.22;2.30;;;21.70;65.90;;;;;;5094807;28;20056;-52
2022/05/21 16:23:14;;;;;;;9.00;2.95;;;21.60;69.00;;;;;;5093979;28;20063;-54
2022/05/21 16:25:40;;;;;;;12.13;2.92;;;21.60;69.90;;;;;;5094558;28;20031;-53
2022/05/21 16:28:07;;;;;;;9.85;2.85;;;21.70;69.30;;;;;;5094437;28;20119;-53
2022/05/21 16:30:34;;;;;;;14.55;3.58;;;21.50;69.90;;;;;;5095328;28;20471;-50
2022/05/21 16:33:01;;;;;;;11.40;3.63;;;21.50;70.60;;;;;;5094354;28;20474;-57
2022/05/21 16:35:28;;;;;;;9.43;2.88;;;21.50;71.40;;;;;;5086022;28;20082;-51
2022/05/21 16:37:54;;;;;;;12.73;3.38;;;21.60;71.80;;;;;;5092062;28;20097;-56
2022/05/21 16:40:21;;;;;;;14.00;4.30;;;21.50;73.20;;;;;;5100016;28;20044;-53
2022/05/21 16:42:48;;;;;;;13.15;3.38;;;21.50;74.20;;;;;;5094622;28;21897;-55
2022/05/21 16:45:16;;;;;;;11.40;2.65;;;21.50;74.00;;;;;;5094254;28;20042;-58
2022/05/21 16:47:45;;;;;;;8.68;2.55;;;21.60;74.70;;;;;;5094542;28;20105;-53
2022/05/21 16:50:12;;;;;;;10.00;2.20;;;21.50;74.20;;;;;;5094547;28;20433;-53
2022/05/21 16:52:39;;;;;;;8.57;2.45;;;21.50;74.20;;;;;;5093819;28;20047;-53
2022/05/21 16:55:06;;;;;;;11.27;3.58;;;21.40;74.10;;;;;;5094414;28;20424;-47
